Time;durP1;ratioP1;P1;durP2;ratioP2;P2;SDS_P1;SDS_P2;PMS_P1;PMS_P2;Temp;Humidity;BMP_temperature;BMP_pressure;BME280_temperature;BME280_humidity;BME280_pressure;Samples;Min_cycle;Max_cycle;Signal;HPM_P1;HPM_P2
2021/04/24 00:01:36;;;;;;;9.68;4.32;;;2.60;99.90;;;;;;8297484;28;20164;-65
2021/04/24 00:05:41;;;;;;;8.73;4.53;;;2.60;99.90;;;;;;8297142;28;20029;-65
2021/04/24 00:09:41;;;;;;;7.30;3.80;;;2.80;99.90;;;;;;8296483;28;20126;-65
2021/04/24 00:13:42;;;;;;;10.68;3.95;;;2.60;99.90;;;;;;8297003;28;20476;-65
2021/04/24 00:17:43;;;;;;;8.07;4.50;;;2.50;99.90;;;;;;8297005;28;20040;-65
2021/04/24 00:21:43;;;;;;;12.48;4.60;;;2.20;99.90;;;;;;8296329;28;20033;-65
2021/04/24 00:25:44;;;;;;;5.80;3.47;;;2.20;99.90;;;;;;8311750;28;20028;-65
2021/04/24 00:29:44;;;;;;;8.73;4.20;;;2.20;99.90;;;;;;8297110;28;20033;-65
2021/04/24 00:33:45;;;;;;;10.73;4.20;;;2.20;99.90;;;;;;8296268;28;20125;-64
2021/04/24 00:37:47;;;;;;;10.60;4.22;;;2.40;99.90;;;;;;8296453;28;20018;-64
2021/04/24 00:41:48;;;;;;;11.38;4.18;;;2.20;99.90;;;;;;8296315;28;20493;-65
2021/04/24 00:45:49;;;;;;;8.60;4.60;;;2.20;99.90;;;;;;8295501;28;20106;-65
2021/04/24 00:49:50;;;;;;;8.23;4.38;;;2.00;99.90;;;;;;8296130;28;20029;-65
2021/04/24 00:53:50;;;;;;;9.80;4.20;;;1.80;99.90;;;;;;8295711;28;20049;-65
2021/04/24 00:57:51;;;;;;;7.57;3.63;;;1.50;99.90;;;;;;8294812;28;20049;-65
2021/04/24 01:01:52;;;;;;;11.82;4.22;;;1.50;99.90;;;;;;8295426;28;20092;-65
2021/04/24 01:05:52;;;;;;;8.27;3.60;;;1.60;99.90;;;;;;8295286;28;20034;-64
2021/04/24 01:09:53;;;;;;;11.57;4.57;;;1.50;99.90;;;;;;8295560;28;20033;-64
2021/04/24 01:13:53;;;;;;;7.97;4.15;;;1.40;99.90;;;;;;8295397;28;20040;-64
2021/04/24 01:17:54;;;;;;;7.57;3.83;;;1.50;99.90;;;;;;8295647;28;20032;-65
2021/04/24 01:22:09;;;;;;;7.53;3.92;;;1.60;99.90;;;;;;8294775;28;20030;-64
2021/04/24 01:26:10;;;;;;;8.65;4.28;;;1.30;99.90;;;;;;8295368;28;20022;-67
2021/04/24 01:30:11;;;;;;;10.63;4.35;;;1.20;99.90;;;;;;8295399;28;20030;-67
2021/04/24 01:34:11;;;;;;;8.30;4.32;;;1.10;99.90;;;;;;8293281;28;20049;-67
2021/04/24 01:38:13;;;;;;;7.35;3.95;;;1.30;99.90;;;;;;8294840;28;20022;-67
2021/04/24 01:42:13;;;;;;;7.47;4.10;;;1.00;99.90;;;;;;8295237;28;20061;-67
2021/04/24 01:46:15;;;;;;;9.23;5.03;;;0.90;99.90;;;;;;8294320;28;20036;-65
2021/04/24 01:50:27;;;;;;;10.18;4.57;;;0.70;99.90;;;;;;8293289;28;20026;-65
2021/04/24 01:54:28;;;;;;;8.75;4.20;;;0.80;99.90;;;;;;8309077;28;20036;-65
2021/04/24 01:58:28;;;;;;;7.00;3.90;;;0.90;99.90;;;;;;8326864;28;20029;-65
2021/04/24 02:02:29;;;;;;;8.18;3.90;;;1.00;99.90;;;;;;8325062;28;20052;-65
2021/04/24 02:06:30;;;;;;;7.65;4.13;;;1.00;99.90;;;;;;8326465;28;20068;-65
2021/04/24 02:10:30;;;;;;;10.88;4.57;;;1.10;99.90;;;;;;8325247;28;20025;-66
2021/04/24 02:14:37;;;;;;;7.35;4.20;;;1.10;99.90;;;;;;8326334;28;20030;-65
2021/04/24 02:18:37;;;;;;;7.63;4.03;;;0.90;99.90;;;;;;8325817;28;20718;-65
2021/04/24 02:22:40;;;;;;;8.93;4.43;;;0.90;99.90;;;;;;8323582;28;20033;-64
2021/04/24 02:26:40;;;;;;;9.02;4.57;;;0.70;99.90;;;;;;8326122;28;20017;-65
2021/04/24 02:30:42;;;;;;;6.97;3.95;;;0.60;99.90;;;;;;8326131;28;20037;-65
2021/04/24 02:34:45;;;;;;;8.18;4.10;;;0.40;99.90;;;;;;8325853;28;20099;-65
2021/04/24 02:38:51;;;;;;;11.05;4.88;;;0.30;99.90;;;;;;8325994;28;20030;-64
2021/04/24 02:42:51;;;;;;;10.80;4.72;;;0.60;99.90;;;;;;8325895;28;20037;-65
2021/04/24 02:46:52;;;;;;;11.05;4.85;;;0.50;99.90;;;;;;8325616;28;20091;-65
2021/04/24 02:50:52;;;;;;;9.00;4.35;;;0.30;99.90;;;;;;8324906;28;20755;-65
2021/04/24 02:54:54;;;;;;;8.95;4.85;;;0.50;99.90;;;;;;8325745;28;20060;-65
2021/04/24 02:58:54;;;;;;;8.43;4.32;;;0.60;99.90;;;;;;8325904;28;20053;-64
2021/04/24 03:03:03;;;;;;;11.85;4.18;;;0.60;99.90;;;;;;8324754;28;20038;-65
2021/04/24 03:07:04;;;;;;;8.27;4.30;;;0.60;99.90;;;;;;8325436;28;20407;-64
2021/04/24 03:11:04;;;;;;;9.32;4.57;;;0.40;99.90;;;;;;8324168;28;20025;-65
2021/04/24 03:15:06;;;;;;;12.65;4.95;;;0.10;99.90;;;;;;8323931;28;20030;-64
2021/04/24 03:19:08;;;;;;;11.18;4.80;;;0.20;99.90;;;;;;8325284;28;20639;-64
2021/04/24 03:23:09;;;;;;;9.15;4.65;;;0.40;99.90;;;;;;8329520;28;20030;-64
2021/04/24 03:27:10;;;;;;;10.02;4.75;;;0.10;99.90;;;;;;8331530;28;20392;-64
2021/04/24 03:31:11;;;;;;;7.18;4.18;;;-0.10;99.90;;;;;;8331072;28;20120;-64
2021/04/24 03:35:11;;;;;;;10.57;4.65;;;-0.10;99.90;;;;;;8331066;28;20061;-65
2021/04/24 03:39:12;;;;;;;11.77;4.40;;;-0.20;99.90;;;;;;8331183;28;20582;-65
2021/04/24 03:43:12;;;;;;;7.95;4.68;;;0.10;99.90;;;;;;8330739;28;20045;-64
2021/04/24 03:47:13;;;;;;;8.57;4.43;;;0.30;99.90;;;;;;8330725;28;20026;-64
2021/04/24 03:51:13;;;;;;;8.77;4.35;;;0.00;99.90;;;;;;8330827;28;20032;-64
2021/04/24 03:55:16;;;;;;;9.65;4.30;;;-0.10;99.90;;;;;;8326942;28;20040;-64
2021/04/24 03:59:17;;;;;;;9.82;4.63;;;-0.20;99.90;;;;;;8314648;28;20579;-64
2021/04/24 04:03:17;;;;;;;7.80;4.35;;;-0.20;99.90;;;;;;8312317;28;20030;-64
2021/04/24 04:07:18;;;;;;;11.18;4.88;;;-0.10;99.90;;;;;;8319098;28;20030;-64
2021/04/24 04:11:19;;;;;;;6.30;3.80;;;-0.10;99.90;;;;;;8312901;28;20097;-64
2021/04/24 04:15:21;;;;;;;9.32;4.40;;;-0.10;99.90;;;;;;8312677;28;20022;-64
2021/04/24 04:19:22;;;;;;;9.65;4.80;;;0.00;99.90;;;;;;8326541;28;20057;-65
2021/04/24 04:23:25;;;;;;;12.85;4.57;;;0.00;99.90;;;;;;8327895;28;20021;-64
2021/04/24 04:27:27;;;;;;;9.80;4.93;;;0.00;99.90;;;;;;8311213;28;20049;-66
2021/04/24 04:31:27;;;;;;;11.70;5.00;;;0.00;99.90;;;;;;8294573;28;20029;-66
2021/04/24 04:35:28;;;;;;;11.30;4.60;;;-0.20;99.90;;;;;;8296415;28;20041;-64
2021/04/24 04:39:29;;;;;;;7.93;4.85;;;-0.20;99.90;;;;;;8295359;28;20025;-64
2021/04/24 04:43:30;;;;;;;10.02;5.13;;;-0.30;99.90;;;;;;8296091;28;20077;-65
2021/04/24 04:47:31;;;;;;;10.45;4.60;;;-0.30;99.90;;;;;;8296190;28;20058;-65
2021/04/24 04:51:31;;;;;;;13.18;5.63;;;-0.10;99.90;;;;;;8296247;28;20400;-65
2021/04/24 04:55:32;;;;;;;12.57;5.13;;;0.10;99.90;;;;;;8295930;28;20040;-65
2021/04/24 04:59:32;;;;;;;12.82;5.68;;;0.40;99.90;;;;;;8295850;28;20034;-64
2021/04/24 05:03:33;;;;;;;11.38;5.10;;;0.50;99.90;;;;;;8295509;28;20076;-64
2021/04/24 05:07:34;;;;;;;10.55;5.68;;;1.00;99.90;;;;;;8295569;28;20026;-65
2021/04/24 05:11:34;;;;;;;12.88;6.28;;;1.30;99.90;;;;;;8295566;28;20061;-65
2021/04/24 05:15:35;;;;;;;12.43;5.65;;;1.50;99.90;;;;;;8310845;28;20123;-65
2021/04/24 05:19:36;;;;;;;14.85;5.70;;;1.70;99.90;;;;;;8293629;28;20104;-65
2021/04/24 05:23:36;;;;;;;11.15;5.55;;;1.90;99.90;;;;;;8294913;28;20040;-64
2021/04/24 05:27:38;;;;;;;9.20;4.68;;;2.30;99.90;;;;;;8297499;28;20026;-65
2021/04/24 05:31:39;;;;;;;13.68;5.20;;;2.40;99.90;;;;;;8295012;28;20033;-65
2021/04/24 05:35:39;;;;;;;9.75;5.72;;;2.50;99.90;;;;;;8322186;28;20037;-69
2021/04/24 05:39:40;;;;;;;15.77;6.32;;;2.70;99.90;;;;;;8327126;28;20052;-69
2021/04/24 05:43:41;;;;;;;16.95;6.22;;;3.00;99.90;;;;;;8326835;28;20025;-69
2021/04/24 05:47:44;;;;;;;11.30;5.43;;;3.30;99.90;;;;;;8342939;28;20013;-69
2021/04/24 05:51:44;;;;;;;11.10;6.03;;;3.60;99.90;;;;;;8317243;28;20064;-69
2021/04/24 05:55:45;;;;;;;11.27;6.35;;;3.90;99.90;;;;;;8300176;28;20105;-69
2021/04/24 05:59:45;;;;;;;16.55;6.95;;;4.30;99.90;;;;;;8325199;28;20036;-69
2021/04/24 06:03:46;;;;;;;13.88;7.20;;;4.50;99.90;;;;;;8325419;28;20516;-68
2021/04/24 06:07:47;;;;;;;18.33;7.53;;;4.90;99.90;;;;;;8314612;28;20068;-63
2021/04/24 06:11:48;;;;;;;12.13;6.15;;;5.30;99.90;;;;;;8308699;28;20100;-63
2021/04/24 06:15:49;;;;;;;15.43;6.30;;;5.60;99.90;;;;;;8317710;28;20400;-63
2021/04/24 06:19:50;;;;;;;13.05;5.90;;;6.00;99.90;;;;;;8301058;28;20033;-63
2021/04/24 06:23:51;;;;;;;13.13;5.82;;;6.70;99.90;;;;;;8325663;28;20057;-63
2021/04/24 06:27:51;;;;;;;16.73;7.47;;;8.90;99.90;;;;;;8325997;28;20384;-64
2021/04/24 06:31:52;;;;;;;14.57;5.15;;;8.70;99.90;;;;;;8325705;28;20026;-63
2021/04/24 06:35:53;;;;;;;11.95;6.43;;;8.50;99.90;;;;;;8306764;28;20041;-63
2021/04/24 06:39:53;;;;;;;9.35;5.90;;;8.50;99.90;;;;;;8301002;28;20036;-64
2021/04/24 06:43:54;;;;;;;13.23;6.50;;;8.30;99.90;;;;;;8324869;28;20167;-64
2021/04/24 06:47:54;;;;;;;14.13;6.70;;;8.30;99.90;;;;;;8325693;28;20029;-64
2021/04/24 06:51:55;;;;;;;12.60;5.90;;;8.30;99.90;;;;;;8305586;28;20091;-64
2021/04/24 06:55:57;;;;;;;13.23;6.88;;;8.50;99.90;;;;;;8295382;28;20018;-64
2021/04/24 06:59:57;;;;;;;13.88;6.70;;;8.70;99.90;;;;;;8299453;28;20025;-64
2021/04/24 07:03:58;;;;;;;12.27;6.47;;;8.90;99.90;;;;;;8299156;28;20022;-64
2021/04/24 07:07:59;;;;;;;13.05;7.43;;;9.20;99.90;;;;;;8297960;28;20022;-62
2021/04/24 07:11:59;;;;;;;15.77;6.57;;;9.30;99.90;;;;;;8304906;28;20033;-63
2021/04/24 07:16:03;;;;;;;14.45;6.95;;;9.60;99.90;;;;;;8308762;28;20631;-63
2021/04/24 07:20:05;;;;;;;16.30;6.05;;;9.70;99.90;;;;;;8310514;28;20041;-62
2021/04/24 07:24:06;;;;;;;11.90;6.65;;;9.90;99.90;;;;;;8328979;28;20026;-63
2021/04/24 07:28:07;;;;;;;13.02;7.03;;;10.20;99.90;;;;;;8331429;28;20033;-63
2021/04/24 07:32:07;;;;;;;16.15;6.93;;;10.50;99.90;;;;;;8331255;28;20484;-63
2021/04/24 07:36:09;;;;;;;14.60;6.85;;;10.70;99.90;;;;;;8329380;28;20095;-63
2021/04/24 07:40:11;;;;;;;11.57;6.68;;;10.60;99.90;;;;;;8327671;28;20033;-62
2021/04/24 07:44:11;;;;;;;14.60;7.03;;;10.60;99.90;;;;;;8328640;28;20025;-63
2021/04/24 07:48:12;;;;;;;472.20;41.75;;;11.00;99.90;;;;;;8328774;28;20619;-63
2021/04/24 07:52:14;;;;;;;15.00;6.22;;;11.50;99.90;;;;;;8328355;28;20091;-63
2021/04/24 07:56:15;;;;;;;12.95;6.65;;;11.90;98.70;;;;;;8328400;28;20036;-63
2021/04/24 08:00:16;;;;;;;13.02;7.00;;;12.00;98.30;;;;;;8327786;28;20033;-63
2021/04/24 08:04:17;;;;;;;13.10;6.55;;;12.30;98.20;;;;;;8328057;28;20025;-63
2021/04/24 08:08:18;;;;;;;11.73;6.43;;;12.40;99.10;;;;;;8327619;28;20514;-63
2021/04/24 08:12:19;;;;;;;12.07;7.13;;;12.70;98.90;;;;;;8326344;28;20028;-63
2021/04/24 08:16:19;;;;;;;13.20;7.05;;;12.80;95.20;;;;;;8328043;28;20159;-63
2021/04/24 08:20:20;;;;;;;12.77;7.20;;;13.00;97.20;;;;;;8328364;28;20034;-64
2021/04/24 08:24:21;;;;;;;12.65;7.13;;;13.00;94.70;;;;;;8303745;28;20061;-63
2021/04/24 08:28:21;;;;;;;13.90;6.40;;;13.10;93.60;;;;;;8294827;28;20030;-63
2021/04/24 08:32:22;;;;;;;9.18;5.75;;;13.40;94.70;;;;;;8295076;28;20664;-63
2021/04/24 08:36:22;;;;;;;13.25;6.13;;;13.80;99.90;;;;;;8275854;28;543257;-63
2021/04/24 08:40:23;;;;;;;13.45;6.38;;;14.00;95.40;;;;;;8296520;28;20439;-63
2021/04/24 08:44:24;;;;;;;12.32;6.80;;;14.60;91.40;;;;;;8298404;28;20189;-63
2021/04/24 08:48:24;;;;;;;15.77;6.60;;;15.20;94.20;;;;;;8305766;28;20100;-63
2021/04/24 08:52:25;;;;;;;12.27;6.15;;;15.40;87.70;;;;;;8328088;28;20060;-63
2021/04/24 08:56:27;;;;;;;14.15;6.47;;;15.50;91.10;;;;;;8323103;28;20037;-63
2021/04/24 09:00:31;;;;;;;10.73;6.32;;;15.80;88.60;;;;;;8306728;28;20034;-63
2021/04/24 09:04:32;;;;;;;10.48;5.65;;;16.20;78.20;;;;;;8313704;28;20079;-63
2021/04/24 09:08:32;;;;;;;12.32;6.10;;;16.00;68.10;;;;;;8328310;28;20053;-63
2021/04/24 09:12:34;;;;;;;9.13;5.07;;;16.20;77.60;;;;;;8295932;28;20100;-63
2021/04/24 09:16:36;;;;;;;11.00;5.07;;;16.30;71.80;;;;;;8327299;28;20043;-63
2021/04/24 09:20:58;;;;;;;9.98;5.32;;;16.50;72.60;;;;;;8328132;28;20481;-63
2021/04/24 09:25:03;;;;;;;11.80;5.47;;;16.50;70.90;;;;;;8327808;28;20049;-63
2021/04/24 09:29:04;;;;;;;10.55;5.38;;;16.00;69.80;;;;;;8321895;28;20022;-63
2021/04/24 09:33:08;;;;;;;8.32;4.78;;;16.40;71.00;;;;;;8323019;28;20498;-62
2021/04/24 09:37:20;;;;;;;9.15;4.80;;;16.80;66.10;;;;;;8298464;28;20033;-62
2021/04/24 09:41:25;;;;;;;12.30;5.20;;;16.70;66.20;;;;;;8295066;28;20620;-63
2021/04/24 09:45:46;;;;;;;9.77;4.40;;;17.10;66.90;;;;;;8293422;28;20033;-64
2021/04/24 09:49:47;;;;;;;8.55;5.53;;;17.30;69.90;;;;;;8294600;28;20068;-63
2021/04/24 09:53:55;;;;;;;10.75;5.18;;;16.90;61.30;;;;;;8294287;28;20030;-63
2021/04/24 09:57:56;;;;;;;9.98;5.63;;;17.20;63.30;;;;;;8307203;28;20025;-63
2021/04/24 10:02:01;;;;;;;9.38;5.07;;;17.40;61.40;;;;;;8298814;28;20099;-63
2021/04/24 10:06:24;;;;;;;9.57;5.20;;;17.30;55.00;;;;;;8314743;28;20026;-64
2021/04/24 10:10:30;;;;;;;9.02;5.00;;;17.50;65.00;;;;;;8312323;28;20028;-64
2021/04/24 10:14:35;;;;;;;9.43;5.28;;;17.90;59.30;;;;;;8308591;28;20022;-63
2021/04/24 10:18:35;;;;;;;11.00;5.63;;;18.20;57.20;;;;;;8309249;28;20105;-64
2021/04/24 10:22:36;;;;;;;14.60;5.97;;;18.10;56.70;;;;;;8313676;28;20369;-64
2021/04/24 10:26:39;;;;;;;8.88;5.75;;;18.20;57.70;;;;;;8325559;28;20037;-63
2021/04/24 10:30:39;;;;;;;12.13;5.75;;;18.50;60.60;;;;;;8316420;28;20033;-63
2021/04/24 10:34:41;;;;;;;8.25;5.32;;;18.70;56.50;;;;;;8318331;28;20522;-64
2021/04/24 10:38:44;;;;;;;6.65;4.10;;;18.70;45.90;;;;;;8325914;28;20040;-64
2021/04/24 10:42:55;;;;;;;8.80;4.80;;;18.80;59.40;;;;;;8325660;28;20037;-64
2021/04/24 10:46:56;;;;;;;12.05;4.97;;;19.40;55.70;;;;;;8324527;28;20095;-64
2021/04/24 10:50:57;;;;;;;10.52;4.65;;;19.50;54.10;;;;;;8325891;28;20025;-64
2021/04/24 10:55:13;;;;;;;8.80;4.93;;;20.00;54.00;;;;;;8323766;28;20034;-64
2021/04/24 10:59:31;;;;;;;9.93;5.40;;;19.80;47.70;;;;;;8325606;28;20025;-64
2021/04/24 11:03:35;;;;;;;234.40;143.50;;;20.10;51.00;;;;;;8321084;28;20033;-63
2021/04/24 11:11:37;;;;;;;;;;;22.90;41.70;;;;;;8332152;23;20065;-66
2021/04/24 11:15:38;;;;;;;;;;;26.20;36.60;;;;;;8323734;28;19909;-66
2021/04/24 11:19:39;;;;;;;;;;;27.10;37.50;;;;;;8325413;28;19924;-66
2021/04/24 11:23:41;;;;;;;;;;;28.70;31.10;;;;;;8325003;28;19913;-66
2021/04/24 11:28:00;;;;;;;;;;;31.20;30.00;;;;;;8317538;28;19964;-66
2021/04/24 11:32:02;;;;;;;;;;;31.50;28.20;;;;;;8292574;28;19913;-66
2021/04/24 11:40:28;;;;;;;;;;;32.00;28.40;;;;;;8293162;28;19909;-66
2021/04/24 11:44:34;;;;;;;;;;;31.10;26.60;;;;;;8298583;28;19909;-66
2021/04/24 11:48:44;;;;;;;;;;;30.80;26.20;;;;;;8298251;28;19917;-66
2021/04/24 11:52:54;;;;;;;;;;;30.90;26.50;;;;;;8292159;28;19917;-66
2021/04/24 11:56:59;;;;;;;;;;;31.60;24.30;;;;;;8280702;28;19997;-67
2021/04/24 12:01:00;;;;;;;;;;;31.10;24.70;;;;;;8271283;28;19925;-66
2021/04/24 12:05:06;;;;;;;;;;;30.70;26.20;;;;;;8296751;28;20545;-66
2021/04/24 12:09:10;;;;;;;;;;;30.20;28.20;;;;;;8297487;28;19917;-65
2021/04/24 12:13:11;;;;;;;504.23;438.55;;;28.50;27.40;;;;;;8277248;28;20417;-65
2021/04/24 12:17:17;;;;;;;10.05;7.25;;;26.90;29.00;;;;;;8297072;28;20026;-65
2021/04/24 12:21:26;;;;;;;9.82;6.32;;;27.80;28.60;;;;;;8296721;28;20028;-65
2021/04/24 12:25:29;;;;;;;12.18;7.55;;;28.70;32.70;;;;;;8296136;28;20077;-65
2021/04/24 12:29:48;;;;;;;11.55;7.47;;;32.30;28.90;;;;;;8297032;28;20408;-65
2021/04/24 12:33:49;;;;;;;10.38;5.50;;;34.60;24.30;;;;;;8278873;28;20061;-65
2021/04/24 12:37:59;;;;;;;47.00;24.73;;;34.60;26.30;;;;;;8293510;28;20037;-65
2021/04/24 12:42:02;;;;;;;62.58;22.63;;;36.00;24.40;;;;;;8296188;28;20026;-65
2021/04/24 12:46:04;;;;;;;;;;;36.10;23.40;;;;;;8296607;28;20026;-65
2021/04/24 12:50:28;;;;;;;51.22;20.45;;;33.70;24.60;;;;;;8293668;28;20406;-65
2021/04/24 12:54:29;;;;;;;;;;;32.40;26.80;;;;;;8262795;28;20037;-65
2021/04/24 12:58:31;;;;;;;;;;;33.40;24.10;;;;;;8274775;28;19913;-65
2021/04/24 13:02:35;;;;;;;;;;;34.10;23.90;;;;;;8248928;28;19913;-65
2021/04/24 13:06:37;;;;;;;44.58;19.10;;;34.80;23.90;;;;;;8275330;28;20843;-67
2021/04/24 13:10:38;;;;;;;;;;;33.20;24.10;;;;;;8295622;28;20113;-65
2021/04/24 13:14:40;;;;;;;;;;;35.40;26.00;;;;;;8295652;28;19928;-66
2021/04/24 13:18:45;;;;;;;77.10;23.73;;;38.30;24.00;;;;;;8272006;28;20420;-66
2021/04/24 13:22:45;;;;;;;62.60;25.02;;;39.80;22.10;;;;;;8271423;28;20045;-65
2021/04/24 13:26:46;;;;;;;63.77;26.63;;;40.40;21.90;;;;;;8294931;28;20022;-66
2021/04/24 13:30:47;;;;;;;;;;;41.10;21.80;;;;;;8273444;28;20045;-66
2021/04/24 13:34:50;;;;;;;77.97;24.30;;;41.50;20.40;;;;;;8262952;28;20418;-65
2021/04/24 13:39:00;;;;;;;64.07;24.38;;;39.90;21.40;;;;;;8267211;28;20077;-66
2021/04/24 13:43:00;;;;;;;74.70;24.20;;;41.20;20.80;;;;;;8261759;28;20035;-66
2021/04/24 13:47:01;;;;;;;79.60;24.83;;;43.10;19.60;;;;;;8261753;28;20556;-66
2021/04/24 13:51:02;;;;;;;77.90;25.23;;;44.10;19.60;;;;;;8244445;28;20038;-66
2021/04/24 13:55:05;;;;;;;80.50;25.15;;;44.20;18.90;;;;;;8250476;28;20117;-66
2021/04/24 13:59:06;;;;;;;81.70;25.10;;;44.50;19.40;;;;;;8275880;28;20612;-66
2021/04/24 14:03:07;;;;;;;82.28;25.45;;;44.60;18.40;;;;;;8273109;28;20037;-66
2021/04/24 14:07:08;;;;;;;84.93;25.60;;;44.60;17.90;;;;;;8275480;28;20449;-66
2021/04/24 14:11:08;;;;;;;82.60;25.27;;;44.90;18.60;;;;;;8264559;28;20026;-66
2021/04/24 14:15:11;;;;;;;81.55;24.98;;;44.80;18.10;;;;;;8273676;28;20409;-66
2021/04/24 14:19:12;;;;;;;84.72;25.27;;;43.30;17.00;;;;;;8278513;28;20041;-66
2021/04/24 14:23:13;;;;;;;85.65;25.83;;;43.40;18.80;;;;;;8278112;28;20033;-66
2021/04/24 14:27:17;;;;;;;91.07;26.05;;;44.10;17.90;;;;;;8265421;28;20027;-66
2021/04/24 14:31:17;;;;;;;90.28;26.58;;;44.70;17.90;;;;;;8269740;28;20133;-66
2021/04/24 14:35:18;;;;;;;;;;;44.90;18.00;;;;;;8256642;28;20046;-66
2021/04/24 14:39:19;;;;;;;84.13;24.50;;;38.60;19.60;;;;;;8271424;28;20406;-65
2021/04/24 14:43:19;;;;;;;79.63;24.40;;;38.30;22.00;;;;;;8271843;28;20030;-66
2021/04/24 14:47:20;;;;;;;90.88;26.73;;;41.00;19.70;;;;;;8269227;28;20056;-67
2021/04/24 14:51:20;;;;;;;91.82;26.35;;;42.20;19.20;;;;;;8266574;28;20105;-66
2021/04/24 14:55:21;;;;;;;85.82;25.67;;;42.40;18.60;;;;;;8263711;28;20122;-66
2021/04/24 14:59:22;;;;;;;92.72;26.63;;;40.50;19.30;;;;;;8269468;28;20542;-66
2021/04/24 15:03:23;;;;;;;86.43;24.67;;;39.80;19.40;;;;;;8269584;28;20034;-66
2021/04/24 15:07:24;;;;;;;18.40;8.00;;;39.40;19.90;;;;;;8252202;28;20023;-67
2021/04/24 15:11:26;;;;;;;85.25;24.00;;;39.20;20.10;;;;;;8265351;28;20053;-66
2021/04/24 15:15:26;;;;;;;92.63;26.00;;;38.50;20.30;;;;;;8259686;28;20032;-67
2021/04/24 15:19:27;;;;;;;81.07;22.80;;;37.40;19.90;;;;;;8248513;28;20026;-66
2021/04/24 15:23:28;;;;;;;94.63;27.13;;;37.30;21.90;;;;;;8271208;28;20022;-66
2021/04/24 15:27:29;;;;;;;89.57;27.08;;;37.20;21.70;;;;;;8281699;28;20591;-66
2021/04/24 15:31:29;;;;;;;88.75;26.63;;;37.60;20.70;;;;;;8272207;28;20022;-66
2021/04/24 15:35:30;;;;;;;79.80;25.77;;;36.40;21.50;;;;;;8273288;28;20076;-66
2021/04/24 15:39:31;;;;;;;79.57;25.52;;;35.80;19.40;;;;;;8265954;28;20037;-67
2021/04/24 15:43:32;;;;;;;63.93;28.73;;;35.40;21.30;;;;;;8267434;28;20034;-66
2021/04/24 15:47:32;;;;;;;;;;;33.90;23.50;;;;;;8267888;28;20026;-65
2021/04/24 15:51:33;;;;;;;9.23;6.97;;;32.80;20.60;;;;;;8253240;28;20426;-66
2021/04/24 15:55:34;;;;;;;8.52;5.70;;;30.30;22.40;;;;;;8255181;28;20042;-66
2021/04/24 15:59:35;;;;;;;9.20;5.65;;;33.50;24.00;;;;;;8265024;28;20101;-66
2021/04/24 16:03:36;;;;;;;7.05;5.85;;;35.70;21.50;;;;;;8264323;28;20022;-66
2021/04/24 16:07:37;;;;;;;9.10;6.35;;;36.70;21.40;;;;;;8272556;28;20128;-66
2021/04/24 16:11:38;;;;;;;8.13;5.88;;;36.90;20.70;;;;;;8251222;28;20073;-66
2021/04/24 16:15:38;;;;;;;8.75;6.07;;;37.30;19.90;;;;;;8253738;28;20406;-66
2021/04/24 16:19:39;;;;;;;7.13;5.78;;;37.30;19.90;;;;;;8272239;28;20092;-66
2021/04/24 16:23:40;;;;;;;8.30;5.72;;;36.80;21.00;;;;;;8262520;28;20041;-66
2021/04/24 16:27:41;;;;;;;9.35;5.55;;;36.80;20.20;;;;;;8269534;28;20038;-66
2021/04/24 16:31:41;;;;;;;6.68;5.10;;;36.80;20.50;;;;;;8255580;28;20057;-66
2021/04/24 16:35:42;;;;;;;5.95;5.20;;;36.40;21.20;;;;;;8272283;28;20030;-66
2021/04/24 16:39:42;;;;;;;6.40;4.50;;;37.10;21.90;;;;;;8282012;28;20101;-66
2021/04/24 16:43:43;;;;;;;7.05;5.93;;;37.30;22.10;;;;;;8275353;28;20193;-65
2021/04/24 16:47:46;;;;;;;7.55;5.97;;;37.00;20.80;;;;;;8295568;28;20018;-66
2021/04/24 16:51:48;;;;;;;10.85;5.45;;;36.60;23.20;;;;;;8284401;28;20045;-66
2021/04/24 16:55:48;;;;;;;8.05;5.90;;;36.20;22.70;;;;;;8263120;28;20034;-65
2021/04/24 16:59:49;;;;;;;8.82;5.53;;;36.00;23.90;;;;;;8278331;28;20117;-66
2021/04/24 17:03:49;;;;;;;15.68;6.07;;;35.00;23.70;;;;;;8293249;28;20037;-65
2021/04/24 17:07:50;;;;;;;8.63;6.28;;;34.00;23.90;;;;;;8283340;28;20034;-65
2021/04/24 17:11:52;;;;;;;8.48;6.65;;;32.70;25.20;;;;;;8255123;28;20033;-65
2021/04/24 17:15:53;;;;;;;15.63;7.05;;;30.60;26.70;;;;;;8262597;28;20079;-65
2021/04/24 17:19:53;;;;;;;9.30;6.70;;;28.20;30.10;;;;;;8276573;28;20037;-65
2021/04/24 17:23:55;;;;;;;9.25;6.75;;;26.50;29.60;;;;;;8272907;28;20054;-65
2021/04/24 17:27:55;;;;;;;8.73;6.28;;;25.40;31.60;;;;;;8270719;28;20029;-65
2021/04/24 17:31:56;;;;;;;10.15;7.00;;;24.10;33.20;;;;;;8270476;28;20038;-65
2021/04/24 17:35:56;;;;;;;10.55;6.57;;;22.70;36.40;;;;;;8271024;28;20451;-65
2021/04/24 17:39:57;;;;;;;11.40;6.40;;;21.30;37.70;;;;;;8268512;28;20140;-65
2021/04/24 17:43:59;;;;;;;11.18;6.90;;;19.80;40.50;;;;;;8261326;28;20034;-66
2021/04/24 17:47:59;;;;;;;13.05;6.63;;;18.80;42.30;;;;;;8265272;28;20113;-65
2021/04/24 17:52:00;;;;;;;12.30;6.80;;;18.10;43.80;;;;;;8270034;28;20050;-64
2021/04/24 17:56:00;;;;;;;12.32;6.60;;;17.60;44.70;;;;;;8272956;28;20033;-65
2021/04/24 18:00:03;;;;;;;13.75;6.35;;;17.30;45.40;;;;;;8275133;28;20026;-65
2021/04/24 18:04:04;;;;;;;10.75;6.05;;;16.90;45.60;;;;;;8257704;28;20088;-65
2021/04/24 18:08:05;;;;;;;13.93;6.45;;;16.50;46.00;;;;;;8274137;28;20666;-64
2021/04/24 18:12:06;;;;;;;10.77;6.57;;;16.10;46.90;;;;;;8276481;28;20495;-64
2021/04/24 18:16:07;;;;;;;11.88;6.63;;;15.80;47.60;;;;;;8263119;28;20022;-64
2021/04/24 18:20:10;;;;;;;15.32;6.43;;;15.60;47.20;;;;;;8274973;28;20023;-64
2021/04/24 18:24:10;;;;;;;13.73;6.78;;;15.50;47.10;;;;;;8269376;28;20030;-64
2021/04/24 18:28:11;;;;;;;13.38;6.78;;;15.40;48.10;;;;;;8275404;28;20125;-64
2021/04/24 18:32:12;;;;;;;13.05;6.60;;;15.20;48.30;;;;;;8271835;28;20492;-65
2021/04/24 18:36:12;;;;;;;9.20;5.88;;;14.90;48.90;;;;;;8272566;28;20033;-64
2021/04/24 18:40:16;;;;;;;11.20;6.45;;;14.70;50.00;;;;;;8256877;28;20021;-66
2021/04/24 18:44:16;;;;;;;13.27;6.13;;;14.20;51.60;;;;;;8271862;28;20050;-66
2021/04/24 18:48:17;;;;;;;9.93;6.28;;;13.90;53.20;;;;;;8267780;28;20026;-67
2021/04/24 18:52:18;;;;;;;12.88;8.02;;;13.50;55.70;;;;;;8269845;28;20527;-66
2021/04/24 18:56:19;;;;;;;12.30;7.82;;;13.30;56.60;;;;;;8267586;28;20035;-67
2021/04/24 19:00:23;;;;;;;13.30;7.75;;;13.40;56.90;;;;;;8271402;28;20026;-67
2021/04/24 19:04:23;;;;;;;18.75;10.98;;;13.20;57.80;;;;;;8262733;28;20026;-67
2021/04/24 19:08:26;;;;;;;15.27;7.68;;;13.10;57.90;;;;;;8266707;28;20030;-66
2021/04/24 19:12:27;;;;;;;16.13;7.97;;;12.90;56.90;;;;;;8253388;28;20030;-66
2021/04/24 19:16:27;;;;;;;14.60;6.82;;;12.60;57.90;;;;;;8270564;28;20563;-66
2021/04/24 19:20:28;;;;;;;12.95;7.10;;;12.40;59.40;;;;;;8282394;28;20080;-67
2021/04/24 19:24:29;;;;;;;14.40;7.07;;;12.20;59.10;;;;;;8272250;28;20721;-67
2021/04/24 19:28:29;;;;;;;18.33;6.75;;;12.30;59.50;;;;;;8265201;28;20062;-67
2021/04/24 19:32:30;;;;;;;10.90;6.93;;;12.10;62.60;;;;;;8268213;28;20037;-67
2021/04/24 19:36:30;;;;;;;12.73;7.15;;;11.80;65.20;;;;;;8266995;28;20438;-68
2021/04/24 19:40:31;;;;;;;16.77;10.07;;;11.50;68.00;;;;;;8273241;28;20050;-67
2021/04/24 19:44:32;;;;;;;17.88;10.60;;;11.40;67.00;;;;;;8255677;28;20030;-68
2021/04/24 19:48:32;;;;;;;19.02;10.10;;;11.30;66.70;;;;;;8268208;28;20058;-67
2021/04/24 19:52:33;;;;;;;23.60;10.10;;;11.00;67.60;;;;;;8260517;28;20084;-68
2021/04/24 19:56:35;;;;;;;20.40;9.75;;;10.80;70.00;;;;;;8283136;28;20018;-68
2021/04/24 20:00:36;;;;;;;21.02;10.07;;;10.50;70.90;;;;;;8268591;28;20138;-68
2021/04/24 20:04:38;;;;;;;20.23;11.95;;;10.40;72.90;;;;;;8264991;28;20022;-68
2021/04/24 20:08:39;;;;;;;21.08;12.07;;;10.30;72.30;;;;;;8253998;28;20041;-68
2021/04/24 20:12:40;;;;;;;25.98;12.10;;;10.10;72.50;;;;;;8272821;28;20034;-67
2021/04/24 20:16:41;;;;;;;20.52;11.93;;;10.00;75.30;;;;;;8265990;28;20030;-68
2021/04/24 20:20:42;;;;;;;17.45;10.55;;;10.00;76.90;;;;;;8253424;28;20401;-68
2021/04/24 20:24:43;;;;;;;22.20;11.60;;;10.10;75.70;;;;;;8283974;28;20037;-67
2021/04/24 20:28:44;;;;;;;17.65;10.80;;;9.80;78.40;;;;;;8266983;28;20089;-68
2021/04/24 20:32:44;;;;;;;15.93;9.25;;;9.40;82.00;;;;;;8260198;28;20117;-68
2021/04/24 20:36:46;;;;;;;17.25;9.30;;;9.30;82.20;;;;;;8271204;28;20502;-68
2021/04/24 20:40:46;;;;;;;18.98;9.05;;;9.30;82.30;;;;;;8274908;28;20076;-67
2021/04/24 20:44:47;;;;;;;16.30;9.10;;;9.30;87.00;;;;;;8276100;28;20088;-67
2021/04/24 20:48:48;;;;;;;19.63;11.50;;;9.30;87.80;;;;;;8273057;28;20077;-68
2021/04/24 20:52:49;;;;;;;23.02;12.93;;;8.90;91.10;;;;;;8288923;28;20049;-67
2021/04/24 20:56:49;;;;;;;20.17;10.15;;;8.50;94.30;;;;;;8299786;28;20026;-67
2021/04/24 21:00:50;;;;;;;17.20;9.02;;;8.20;97.60;;;;;;8306402;28;20037;-67
2021/04/24 21:04:51;;;;;;;13.77;8.85;;;8.30;99.90;;;;;;8294017;28;20034;-68
2021/04/24 21:08:51;;;;;;;21.30;9.77;;;8.40;99.90;;;;;;8282218;28;20038;-68